Time;durP1;ratioP1;P1;durP2;ratioP2;P2;SDS_P1;SDS_P2;PMS_P1;PMS_P2;Temp;Humidity;BMP_temperature;BMP_pressure;BME280_temperature;BME280_humidity;BME280_pressure;Samples;Min_cycle;Max_cycle;Signal;HPM_P1;HPM_P2
2022/06/13 00:04:29;;;;;;;4.88;2.20;;;;;;;;;;10393350;28;20499;-47
2022/06/13 00:09:29;;;;;;;2.65;1.70;;;;;;;;;;10395740;28;20029;-47
2022/06/13 00:14:30;;;;;;;2.22;1.70;;;;;;;;;;10396290;28;20112;-48
2022/06/13 00:19:30;;;;;;;7.45;2.13;;;;;;;;;;10396129;28;20052;-46
2022/06/13 00:24:32;;;;;;;3.55;1.83;;;;;;;;;;10388831;28;20033;-47
2022/06/13 00:29:33;;;;;;;2.40;1.70;;;;;;;;;;10381528;28;20061;-46
2022/06/13 00:34:33;;;;;;;7.32;1.67;;;;;;;;;;10385718;28;20036;-47
2022/06/13 00:39:34;;;;;;;9.05;2.25;;;;;;;;;;10405453;28;20125;-47
2022/06/13 00:44:38;;;;;;;2.13;1.45;;;;;;;;;;10385330;28;20038;-47
2022/06/13 00:49:44;;;;;;;9.10;1.70;;;;;;;;;;10375140;28;20038;-48
2022/06/13 00:54:47;;;;;;;4.22;2.00;;;;;;;;;;10384860;28;20025;-48
2022/06/13 00:59:57;;;;;;;3.92;1.75;;;;;;;;;;10384388;28;20056;-53
2022/06/13 01:04:59;;;;;;;2.72;1.70;;;;;;;;;;10386279;28;20037;-47
2022/06/13 01:15:30;;;;;;;3.28;2.17;;;;;;;;;;10381386;28;20444;-49
2022/06/13 01:20:58;;;;;;;4.97;1.90;;;;;;;;;;10382909;28;20468;-49
2022/06/13 01:26:35;;;;;;;4.15;1.77;;;;;;;;;;10375831;28;20033;-49
2022/06/13 01:31:41;;;;;;;4.60;2.30;;;;;;;;;;10386410;28;20054;-48
2022/06/13 01:36:44;;;;;;;2.58;1.58;;;;;;;;;;10382902;28;20456;-48
2022/06/13 01:42:49;;;;;;;2.03;1.80;;;;;;;;;;10372221;28;20034;-48
2022/06/13 01:48:20;;;;;;;2.80;1.85;;;;;;;;;;10311787;28;20042;-48
2022/06/13 01:54:00;;;;;;;4.63;1.80;;;;;;;;;;10316942;28;20046;-50
2022/06/13 01:59:17;;;;;;;4.97;1.98;;;;;;;;;;10318095;28;20173;-48
2022/06/13 02:04:39;;;;;;;5.40;2.00;;;;;;;;;;10321855;28;20036;-48
2022/06/13 02:09:50;;;;;;;4.10;2.28;;;;;;;;;;10318471;28;20050;-47
2022/06/13 02:15:07;;;;;;;5.20;2.58;;;;;;;;;;10316248;28;20096;-49
2022/06/13 02:20:20;;;;;;;3.80;1.83;;;;;;;;;;10381617;28;20045;-48
2022/06/13 02:25:32;;;;;;;2.15;1.83;;;;;;;;;;10391067;28;20042;-47
2022/06/13 02:30:42;;;;;;;2.95;2.05;;;;;;;;;;10377046;28;20558;-49
2022/06/13 02:35:52;;;;;;;3.15;1.83;;;;;;;;;;10382174;28;20113;-47
2022/06/13 02:41:11;;;;;;;1.80;1.70;;;;;;;;;;10380943;28;20109;-47
2022/06/13 02:46:30;;;;;;;2.03;1.58;;;;;;;;;;10395345;28;20056;-47
2022/06/13 02:51:49;;;;;;;3.60;1.88;;;;;;;;;;10383813;28;20120;-47
2022/06/13 03:02:51;;;;;;;9.82;1.90;;;;;;;;;;10374248;28;20050;-47
2022/06/13 03:08:21;;;;;;;;;;;;;;;;;;10395382;28;20030;-47
2022/06/13 03:13:54;;;;;;;1.83;1.67;;;;;;;;;;10395860;28;19924;-47
2022/06/13 03:19:05;;;;;;;4.95;1.90;;;;;;;;;;10377305;28;20036;-49
2022/06/13 03:24:34;;;;;;;2.67;1.92;;;;;;;;;;10389443;28;20060;-50
2022/06/13 03:29:51;;;;;;;2.22;1.80;;;;;;;;;;10366541;28;20433;-50
2022/06/13 03:34:58;;;;;;;2.95;1.83;;;;;;;;;;10384559;28;20080;-48
2022/06/13 03:40:07;;;;;;;3.03;1.88;;;;;;;;;;10397533;28;20087;-56
2022/06/13 03:45:17;;;;;;;6.10;2.10;;;;;;;;;;10373567;28;20033;-47
2022/06/13 03:50:42;;;;;;;5.25;2.03;;;;;;;;;;10412948;28;20038;-47
2022/06/13 03:55:55;;;;;;;2.35;1.90;;;;;;;;;;10390493;28;20545;-47
2022/06/13 04:01:34;;;;;;;7.35;1.92;;;;;;;;;;10409094;28;20123;-48
2022/06/13 04:06:42;;;;;;;2.42;1.92;;;;;;;;;;10380538;28;20021;-48
2022/06/13 04:12:08;;;;;;;2.80;1.90;;;;;;;;;;10401152;28;20030;-48
2022/06/13 04:17:51;;;;;;;3.80;1.90;;;;;;;;;;10392652;28;20100;-49
2022/06/13 04:23:11;;;;;;;2.67;2.00;;;;;;;;;;10386174;28;20060;-49
2022/06/13 04:28:41;;;;;;;3.30;2.13;;;;;;;;;;10379197;28;20036;-48
2022/06/13 04:33:53;;;;;;;4.18;1.75;;;;;;;;;;10398571;28;20512;-48
2022/06/13 04:38:58;;;;;;;3.75;2.08;;;;;;;;;;10392826;28;20088;-49
2022/06/13 04:44:03;;;;;;;2.38;1.90;;;;;;;;;;10385939;28;20065;-49
2022/06/13 04:49:15;;;;;;;4.53;2.15;;;;;;;;;;10393747;28;20033;-49
2022/06/13 04:54:48;;;;;;;3.75;2.22;;;;;;;;;;10384116;28;20034;-47
2022/06/13 04:59:49;;;;;;;3.22;1.92;;;;;;;;;;10393190;28;20045;-47
2022/06/13 05:04:51;;;;;;;6.05;2.13;;;;;;;;;;10389482;28;20117;-49
2022/06/13 05:10:00;;;;;;;5.65;2.10;;;;;;;;;;10401612;28;20095;-48
2022/06/13 05:15:24;;;;;;;6.75;2.22;;;;;;;;;;10388875;28;20132;-48
2022/06/13 05:20:52;;;;;;;7.65;2.47;;;;;;;;;;10387427;28;20029;-47
2022/06/13 05:25:57;;;;;;;;;;;;;;;;;;10398983;28;20034;-52
2022/06/13 05:31:05;;;;;;;19.15;3.92;;;;;;;;;;10400016;28;19917;-47
2022/06/13 05:36:11;;;;;;;14.02;4.18;;;;;;;;;;10380246;28;20069;-49
2022/06/13 05:41:12;;;;;;;20.05;4.10;;;;;;;;;;10390761;28;20610;-49
2022/06/13 05:46:25;;;;;;;11.68;4.50;;;;;;;;;;10377162;28;20065;-53
2022/06/13 05:51:27;;;;;;;25.25;4.93;;;;;;;;;;10381423;28;20458;-46
2022/06/13 05:56:27;;;;;;;24.70;5.18;;;;;;;;;;10392383;28;20053;-46
2022/06/13 06:01:28;;;;;;;15.30;4.43;;;;;;;;;;10388507;28;20072;-47
2022/06/13 06:06:31;;;;;;;17.33;3.90;;;;;;;;;;10377440;28;20065;-49
2022/06/13 06:11:32;;;;;;;29.95;5.45;;;;;;;;;;10376575;28;20026;-48
2022/06/13 06:16:33;;;;;;;20.73;5.35;;;;;;;;;;10401185;28;20038;-53
2022/06/13 06:21:34;;;;;;;27.85;5.05;;;;;;;;;;10398835;28;20469;-48
2022/06/13 06:26:34;;;;;;;20.52;5.28;;;;;;;;;;10366824;28;20021;-51
2022/06/13 06:31:35;;;;;;;20.05;4.72;;;;;;;;;;10386173;28;20041;-49
2022/06/13 06:36:36;;;;;;;20.63;4.30;;;;;;;;;;10383004;28;20096;-47
2022/06/13 06:41:36;;;;;;;23.02;4.30;;;;;;;;;;10386343;28;20025;-49
2022/06/13 06:46:37;;;;;;;22.48;3.97;;;;;;;;;;10384663;28;20029;-52
2022/06/13 06:51:40;;;;;;;13.07;4.20;;;;;;;;;;10372667;28;20029;-48
2022/06/13 07:02:01;;;;;;;9.25;3.38;;;;;;;;;;10379779;28;20444;-57
2022/06/13 07:07:03;;;;;;;11.20;3.65;;;;;;;;;;10386433;28;20108;-56
2022/06/13 07:12:04;;;;;;;16.52;3.95;;;;;;;;;;10406499;28;20032;-49
2022/06/13 07:17:08;;;;;;;19.45;4.22;;;;;;;;;;10379209;28;20030;-49
2022/06/13 07:22:15;;;;;;;12.00;3.55;;;;;;;;;;10403817;28;20025;-52
2022/06/13 07:27:16;;;;;;;13.68;3.45;;;;;;;;;;10413291;28;20022;-51
2022/06/13 07:32:25;;;;;;;9.93;3.42;;;;;;;;;;10384204;28;20154;-53
2022/06/13 07:42:49;;;;;;;11.15;3.20;;;;;;;;;;10387310;28;20026;-47
2022/06/13 07:47:51;;;;;;;12.40;3.20;;;;;;;;;;10395611;28;20018;-54
2022/06/13 07:52:52;;;;;;;9.95;3.45;;;;;;;;;;10374813;28;20026;-48
2022/06/13 07:57:53;;;;;;;7.70;3.50;;;;;;;;;;10399547;28;20021;-49
2022/06/13 08:02:54;;;;;;;14.52;3.72;;;;;;;;;;10381429;28;20018;-49
2022/06/13 08:07:55;;;;;;;15.73;3.55;;;;;;;;;;10398624;28;20104;-49
2022/06/13 08:12:57;;;;;;;9.15;3.20;;;;;;;;;;10375315;28;20095;-48
2022/06/13 08:17:58;;;;;;;6.95;2.97;;;;;;;;;;10395573;28;20021;-51
2022/06/13 08:23:00;;;;;;;5.78;3.28;;;;;;;;;;10397172;28;20072;-58
2022/06/13 08:28:01;;;;;;;12.95;3.03;;;;;;;;;;10397699;28;20112;-58
2022/06/13 08:33:02;;;;;;;11.02;3.08;;;;;;;;;;10395212;28;20493;-57
2022/06/13 08:38:05;;;;;;;9.82;3.13;;;;;;;;;;10397403;28;20033;-57
2022/06/13 08:43:39;;;;;;;9.77;3.05;;;;;;;;;;10398431;28;20029;-57
2022/06/13 08:48:46;;;;;;;10.80;2.67;;;;;;;;;;10374706;28;20048;-59
2022/06/13 08:53:56;;;;;;;7.50;2.85;;;;;;;;;;10376502;28;20029;-58
2022/06/13 08:59:22;;;;;;;15.35;3.45;;;;;;;;;;10405549;28;20037;-55
2022/06/13 09:04:48;;;;;;;10.70;2.90;;;;;;;;;;10383863;28;20026;-49
2022/06/13 09:10:19;;;;;;;7.88;3.13;;;;;;;;;;10387408;28;20044;-55
2022/06/13 09:15:25;;;;;;;20.80;4.03;;;;;;;;;;10408307;28;20029;-58
2022/06/13 09:20:37;;;;;;;10.82;3.60;;;;;;;;;;10394671;28;20237;-57
2022/06/13 09:26:11;;;;;;;11.10;3.08;;;;;;;;;;10380738;28;20017;-58
2022/06/13 09:31:40;;;;;;;9.35;3.55;;;;;;;;;;10394842;28;20056;-59
2022/06/13 09:36:56;;;;;;;11.93;3.35;;;;;;;;;;10408872;28;20025;-56
2022/06/13 09:42:22;;;;;;;7.75;3.33;;;;;;;;;;10394475;28;20068;-57
2022/06/13 09:48:07;;;;;;;9.93;3.08;;;;;;;;;;10369116;28;20481;-57
2022/06/13 09:53:16;;;;;;;10.23;3.78;;;;;;;;;;10380914;28;20026;-48
2022/06/13 09:59:00;;;;;;;8.30;3.15;;;;;;;;;;10368061;28;20429;-58
2022/06/13 10:04:31;;;;;;;7.63;3.17;;;;;;;;;;10377170;28;20029;-57
2022/06/13 10:10:00;;;;;;;10.88;3.30;;;;;;;;;;10382729;28;20073;-55
2022/06/13 10:15:10;;;;;;;6.22;3.30;;;;;;;;;;10381341;28;20040;-54
2022/06/13 10:20:53;;;;;;;5.28;2.83;;;;;;;;;;10378973;28;20081;-49
2022/06/13 10:26:15;;;;;;;7.07;3.25;;;;;;;;;;10404526;28;20047;-50
2022/06/13 10:31:34;;;;;;;6.57;2.90;;;;;;;;;;10398690;28;20068;-48
2022/06/13 10:36:42;;;;;;;5.63;2.90;;;;;;;;;;10379108;28;20037;-52
2022/06/13 10:41:48;;;;;;;10.77;3.03;;;;;;;;;;10400598;28;20033;-52
2022/06/13 10:47:00;;;;;;;6.25;3.30;;;;;;;;;;10391512;28;20458;-49
2022/06/13 10:52:14;;;;;;;6.60;3.22;;;;;;;;;;10410194;28;20071;-55
2022/06/13 10:58:08;;;;;;;7.07;3.30;;;;;;;;;;10391259;28;20026;-48
2022/06/13 11:03:16;;;;;;;5.60;2.80;;;;;;;;;;10365943;28;20041;-54
2022/06/13 11:08:17;;;;;;;6.90;3.25;;;;;;;;;;10399893;28;20051;-50
2022/06/13 11:13:29;;;;;;;4.82;2.95;;;;;;;;;;10389184;28;20048;-50
2022/06/13 11:24:21;;;;;;;10.95;3.63;;;;;;;;;;10379866;28;20033;-48
2022/06/13 11:29:22;;;;;;;13.27;3.40;;;;;;;;;;10364113;28;20378;-52
2022/06/13 11:34:32;;;;;;;7.35;3.28;;;;;;;;;;10383261;28;20435;-49
2022/06/13 11:39:39;;;;;;;9.48;3.30;;;;;;;;;;10373865;28;20041;-49
2022/06/13 11:44:43;;;;;;;5.32;3.20;;;;;;;;;;10399153;28;20025;-50
2022/06/13 11:49:48;;;;;;;6.97;3.08;;;;;;;;;;10387762;28;20033;-58
2022/06/13 11:54:48;;;;;;;3.95;2.95;;;;;;;;;;10413458;28;20068;-50
2022/06/13 11:59:54;;;;;;;9.00;3.00;;;;;;;;;;10389000;28;20396;-49
2022/06/13 12:04:56;;;;;;;5.85;2.95;;;;;;;;;;10384645;28;20452;-52
2022/06/13 12:10:00;;;;;;;12.88;3.50;;;;;;;;;;10379614;28;20436;-49
2022/06/13 12:15:01;;;;;;;6.25;2.70;;;;;;;;;;10385377;28;20066;-51
2022/06/13 12:20:11;;;;;;;4.93;2.90;;;;;;;;;;10399113;28;20545;-49
2022/06/13 12:25:47;;;;;;;4.78;2.60;;;;;;;;;;10379218;28;20489;-49
2022/06/13 12:31:08;;;;;;;4.78;2.92;;;;;;;;;;10382028;28;20052;-50
2022/06/13 12:36:30;;;;;;;8.75;3.10;;;;;;;;;;10403399;28;20025;-52
2022/06/13 12:41:49;;;;;;;6.10;3.10;;;;;;;;;;10395941;28;20033;-49
2022/06/13 12:47:01;;;;;;;10.43;3.03;;;;;;;;;;10391387;28;20079;-48
2022/06/13 12:52:46;;;;;;;5.70;2.55;;;;;;;;;;10403244;28;20037;-50
2022/06/13 12:58:17;;;;;;;6.55;3.00;;;;;;;;;;10407207;28;20405;-49
2022/06/13 13:03:30;;;;;;;4.82;2.60;;;;;;;;;;10388679;28;20026;-49
2022/06/13 13:08:51;;;;;;;5.20;2.70;;;;;;;;;;10390867;28;20060;-50
2022/06/13 13:14:11;;;;;;;4.32;2.38;;;;;;;;;;10374477;28;20038;-49
2022/06/13 13:19:53;;;;;;;5.35;2.47;;;;;;;;;;10382311;28;20457;-49
2022/06/13 13:25:06;;;;;;;8.07;2.85;;;;;;;;;;10389610;28;20025;-58
2022/06/13 13:30:39;;;;;;;7.03;2.47;;;;;;;;;;10382309;28;20048;-48
2022/06/13 13:36:07;;;;;;;4.13;2.42;;;;;;;;;;10380911;28;20025;-53
2022/06/13 13:41:16;;;;;;;6.50;2.55;;;;;;;;;;10373500;28;20034;-50
2022/06/13 13:46:34;;;;;;;4.70;2.60;;;;;;;;;;10375585;28;20045;-52
2022/06/13 13:51:52;;;;;;;7.95;2.95;;;;;;;;;;10373347;28;20036;-50
2022/06/13 13:57:04;;;;;;;3.25;2.45;;;;;;;;;;10378789;28;20034;-53
2022/06/13 14:02:22;;;;;;;4.88;2.72;;;;;;;;;;10385346;28;20116;-51
2022/06/13 14:07:50;;;;;;;7.85;2.53;;;;;;;;;;10388990;28;20029;-49
2022/06/13 14:13:11;;;;;;;3.80;2.40;;;;;;;;;;10393338;28;20028;-57
2022/06/13 14:18:32;;;;;;;5.60;2.58;;;;;;;;;;10380783;28;20110;-56
2022/06/13 14:23:45;;;;;;;6.32;2.38;;;;;;;;;;10380032;28;20484;-51
2022/06/13 14:28:50;;;;;;;5.85;2.45;;;;;;;;;;10396518;28;20029;-56
2022/06/13 14:39:32;;;;;;;5.75;2.50;;;;;;;;;;10389400;28;20049;-55
2022/06/13 14:44:57;;;;;;;4.63;2.65;;;;;;;;;;10390394;28;20030;-58
2022/06/13 14:49:58;;;;;;;5.35;2.50;;;;;;;;;;10395030;28;20033;-49
2022/06/13 14:55:01;;;;;;;3.20;2.33;;;;;;;;;;10395733;28;20052;-48
2022/06/13 15:00:07;;;;;;;6.97;2.22;;;;;;;;;;10396751;28;20252;-59
2022/06/13 15:05:10;;;;;;;4.53;2.50;;;;;;;;;;10396548;28;20029;-52
2022/06/13 15:10:24;;;;;;;8.45;2.95;;;;;;;;;;10408546;28;20100;-49
2022/06/13 15:15:34;;;;;;;6.28;2.45;;;;;;;;;;10406675;28;20033;-51
2022/06/13 15:20:46;;;;;;;5.78;2.40;;;;;;;;;;10373467;28;20080;-50
2022/06/13 15:25:49;;;;;;;7.10;2.63;;;;;;;;;;10378566;28;20480;-53
2022/06/13 15:31:12;;;;;;;12.70;2.40;;;;;;;;;;10395493;28;20568;-54
2022/06/13 15:36:15;;;;;;;5.68;3.03;;;;;;;;;;10395551;28;20048;-56
2022/06/13 15:41:37;;;;;;;5.10;2.70;;;;;;;;;;10391596;28;20041;-49
2022/06/13 15:46:43;;;;;;;4.40;2.80;;;;;;;;;;10394391;28;20040;-50
2022/06/13 15:52:04;;;;;;;7.10;2.75;;;;;;;;;;10383310;28;20512;-53
2022/06/13 15:57:14;;;;;;;5.05;2.83;;;;;;;;;;10386277;28;20111;-53
2022/06/13 16:02:16;;;;;;;8.20;3.22;;;;;;;;;;10394359;28;20029;-55
2022/06/13 16:07:29;;;;;;;6.88;3.03;;;;;;;;;;10402748;28;20026;-52
2022/06/13 16:12:41;;;;;;;11.55;3.40;;;;;;;;;;10395590;28;20034;-54
2022/06/13 16:17:49;;;;;;;6.38;3.20;;;;;;;;;;10392629;28;20033;-52
2022/06/13 16:23:07;;;;;;;6.13;3.80;;;;;;;;;;10397231;28;20022;-52
2022/06/13 16:28:22;;;;;;;4.88;3.00;;;;;;;;;;10384531;28;20057;-54
2022/06/13 16:33:32;;;;;;;4.40;3.40;;;;;;;;;;10399998;28;20088;-50
2022/06/13 16:38:52;;;;;;;4.00;3.05;;;;;;;;;;10402595;28;20025;-55
2022/06/13 16:43:54;;;;;;;4.38;3.35;;;;;;;;;;10391447;28;20026;-52
2022/06/13 16:49:01;;;;;;;7.22;3.97;;;;;;;;;;10393974;28;20030;-53
2022/06/13 16:54:10;;;;;;;8.77;3.67;;;;;;;;;;10425830;28;20440;-52
2022/06/13 16:59:26;;;;;;;6.10;3.28;;;;;;;;;;10395984;28;20040;-54
2022/06/13 17:04:38;;;;;;;7.82;3.70;;;;;;;;;;10376251;28;20021;-55
2022/06/13 17:10:02;;;;;;;4.68;3.00;;;;;;;;;;10413623;28;20385;-52
2022/06/13 17:15:03;;;;;;;7.28;3.17;;;;;;;;;;10393690;28;20033;-55
2022/06/13 17:20:22;;;;;;;4.47;2.95;;;;;;;;;;10392477;28;20033;-53
2022/06/13 17:25:25;;;;;;;8.95;2.80;;;;;;;;;;10393353;28;20482;-53
2022/06/13 17:35:50;;;;;;;5.32;3.00;;;;;;;;;;10406560;28;20037;-54
2022/06/13 17:40:51;;;;;;;5.18;2.90;;;;;;;;;;10390788;28;20048;-54
2022/06/13 17:45:51;;;;;;;3.75;2.78;;;;;;;;;;10394546;28;20044;-52
2022/06/13 17:50:52;;;;;;;3.15;2.70;;;;;;;;;;10402860;28;20030;-54
2022/06/13 17:55:53;;;;;;;6.78;2.70;;;;;;;;;;10368835;28;20061;-61
2022/06/13 18:00:55;;;;;;;6.35;3.03;;;;;;;;;;10388207;28;20026;-63
2022/06/13 18:05:55;;;;;;;5.35;2.58;;;;;;;;;;10378285;28;20114;-63
2022/06/13 18:10:57;;;;;;;5.37;2.10;;;;;;;;;;10422411;28;20090;-64
2022/06/13 18:15:58;;;;;;;9.70;2.10;;;;;;;;;;10410290;28;20768;-63
2022/06/13 18:21:00;;;;;;;8.13;2.35;;;;;;;;;;10374666;28;20172;-65
2022/06/13 18:26:01;;;;;;;4.38;2.05;;;;;;;;;;10387950;28;20033;-64
2022/06/13 18:31:04;;;;;;;3.58;2.20;;;;;;;;;;10418299;28;20061;-61
2022/06/13 18:36:04;;;;;;;10.52;2.33;;;;;;;;;;10406786;28;20456;-64
2022/06/13 18:41:07;;;;;;;8.38;2.25;;;;;;;;;;10376460;28;20113;-64
2022/06/13 18:46:17;;;;;;;7.53;2.50;;;;;;;;;;10395527;28;20025;-64
2022/06/13 18:51:27;;;;;;;7.90;2.90;;;;;;;;;;10378436;28;20018;-63
2022/06/13 18:56:28;;;;;;;10.43;3.20;;;;;;;;;;10386771;28;20045;-63
2022/06/13 19:01:33;;;;;;;7.32;2.60;;;;;;;;;;10386089;28;20032;-64
2022/06/13 19:06:34;;;;;;;13.20;3.03;;;;;;;;;;10387475;28;20028;-64
2022/06/13 19:11:35;;;;;;;7.97;2.47;;;;;;;;;;10399036;28;20491;-63
2022/06/13 19:16:36;;;;;;;9.95;2.75;;;;;;;;;;10392853;28;20032;-64
2022/06/13 19:21:37;;;;;;;10.68;2.80;;;;;;;;;;10413045;28;20038;-64
2022/06/13 19:26:38;;;;;;;6.38;2.75;;;;;;;;;;10390941;28;20030;-64
2022/06/13 19:31:42;;;;;;;7.47;2.63;;;;;;;;;;10397834;28;20057;-64
2022/06/13 19:36:43;;;;;;;2.88;2.10;;;;;;;;;;10390495;28;20504;-64
2022/06/13 19:41:44;;;;;;;10.88;2.72;;;;;;;;;;10410006;28;20030;-60
2022/06/13 19:46:44;;;;;;;5.93;2.85;;;;;;;;;;10387795;28;20026;-52
2022/06/13 19:51:45;;;;;;;6.60;2.80;;;;;;;;;;10390152;28;20120;-48
2022/06/13 19:56:47;;;;;;;8.73;3.25;;;;;;;;;;10394850;28;20548;-48
2022/06/13 20:01:48;;;;;;;8.05;2.72;;;;;;;;;;10379781;28;20018;-50
2022/06/13 20:12:08;;;;;;;13.48;6.40;;;;;;;;;;10386126;28;20280;-49
2022/06/13 20:17:11;;;;;;;11.13;6.00;;;;;;;;;;10370740;28;20244;-48
2022/06/13 20:22:13;;;;;;;13.27;5.43;;;;;;;;;;10383283;28;20500;-49
2022/06/13 20:27:14;;;;;;;13.07;4.97;;;;;;;;;;10392656;28;20555;-48
2022/06/13 20:32:14;;;;;;;15.43;3.85;;;;;;;;;;10384491;28;20058;-48
2022/06/13 20:37:18;;;;;;;16.80;3.13;;;;;;;;;;10375747;28;20115;-48
2022/06/13 20:42:21;;;;;;;7.72;3.78;;;;;;;;;;10388459;28;20029;-47
2022/06/13 20:47:22;;;;;;;16.50;3.75;;;;;;;;;;10377202;28;20034;-48
2022/06/13 20:52:22;;;;;;;4.38;3.10;;;;;;;;;;10394424;28;20025;-48
2022/06/13 20:57:23;;;;;;;10.68;3.70;;;;;;;;;;10399515;28;20120;-48
2022/06/13 21:02:24;;;;;;;6.85;3.60;;;;;;;;;;10383101;28;20029;-49
2022/06/13 21:07:27;;;;;;;5.90;3.80;;;;;;;;;;10381401;28;20026;-57
2022/06/13 21:12:28;;;;;;;13.80;4.22;;;;;;;;;;10390017;28;20030;-48
2022/06/13 21:17:29;;;;;;;8.05;5.03;;;;;;;;;;10383184;28;20061;-48
2022/06/13 21:22:31;;;;;;;15.75;5.43;;;;;;;;;;10382986;28;20029;-48
2022/06/13 21:27:32;;;;;;;10.65;5.10;;;;;;;;;;10383131;28;20105;-47
2022/06/13 21:32:33;;;;;;;12.63;4.50;;;;;;;;;;10398760;28;20504;-47
2022/06/13 21:37:33;;;;;;;15.07;3.90;;;;;;;;;;10400263;28;20033;-45
2022/06/13 21:42:35;;;;;;;7.45;3.08;;;;;;;;;;10410964;28;20025;-52
2022/06/13 21:47:36;;;;;;;10.18;3.30;;;;;;;;;;10419425;28;20049;-46
2022/06/13 21:52:36;;;;;;;10.63;2.97;;;;;;;;;;10391609;28;20404;-46
2022/06/13 21:57:38;;;;;;;9.60;3.03;;;;;;;;;;10386721;28;20125;-46
2022/06/13 22:02:38;;;;;;;7.25;2.90;;;;;;;;;;10379776;28;20032;-46
2022/06/13 22:07:39;;;;;;;9.13;3.00;;;;;;;;;;10380944;28;20030;-47
2022/06/13 22:12:46;;;;;;;8.35;2.60;;;;;;;;;;10383453;28;20401;-46
2022/06/13 22:17:47;;;;;;;5.60;2.80;;;;;;;;;;10381004;28;20563;-46
2022/06/13 22:22:47;;;;;;;12.65;2.90;;;;;;;;;;10384521;28;20038;-45
2022/06/13 22:27:48;;;;;;;8.65;2.75;;;;;;;;;;10395892;28;20061;-45
2022/06/13 22:32:49;;;;;;;4.15;2.67;;;;;;;;;;10392945;28;20041;-46
2022/06/13 22:37:50;;;;;;;5.03;2.53;;;;;;;;;;10400485;28;20037;-45
2022/06/13 22:42:51;;;;;;;6.32;2.85;;;;;;;;;;10375449;28;20037;-45
2022/06/13 22:53:11;;;;;;;8.13;2.33;;;;;;;;;;10385106;28;20069;-46
2022/06/13 22:58:11;;;;;;;6.20;2.30;;;;;;;;;;10387061;28;20053;-46
2022/06/13 23:03:12;;;;;;;4.13;2.50;;;;;;;;;;10384862;28;20386;-45
2022/06/13 23:08:13;;;;;;;4.20;2.40;;;;;;;;;;10377352;28;20050;-46
2022/06/13 23:13:13;;;;;;;3.90;2.17;;;;;;;;;;10417580;28;20040;-46
2022/06/13 23:18:14;;;;;;;6.97;2.30;;;;;;;;;;10393245;28;20018;-45
2022/06/13 23:23:15;;;;;;;4.40;2.40;;;;;;;;;;10404091;28;20022;-46
2022/06/13 23:28:15;;;;;;;9.93;2.45;;;;;;;;;;10375659;28;20421;-52
2022/06/13 23:33:16;;;;;;;5.30;2.58;;;;;;;;;;10366263;28;20042;-46
2022/06/13 23:38:16;;;;;;;6.93;2.28;;;;;;;;;;10392953;28;20022;-47
2022/06/13 23:43:17;;;;;;;5.07;2.20;;;;;;;;;;10391303;28;20037;-46
2022/06/13 23:48:18;;;;;;;11.93;2.90;;;;;;;;;;10384547;28;20204;-46
2022/06/13 23:53:19;;;;;;;4.43;2.40;;;;;;;;;;10378698;28;20044;-46
2022/06/13 23:58:21;;;;;;;3.88;2.45;;;;;;;;;;10391983;28;20079;-45
